Time;durP1;ratioP1;P1;durP2;ratioP2;P2;SDS_P1;SDS_P2;PMS_P1;PMS_P2;Temp;Humidity;BMP_temperature;BMP_pressure;BME280_temperature;BME280_humidity;BME280_pressure;Samples;Min_cycle;Max_cycle;Signal;HPM_P1;HPM_P2
2022/05/22 00:01:23;;;;;;;;;;;9.50;99.90;;;;;;6246473;23;19931;-67
2022/05/22 00:03:50;;;;;;;;;;;9.40;99.90;;;;;;6219403;23;19919;-70
2022/05/22 00:06:15;;;;;;;;;;;9.40;99.90;;;;;;6219213;23;19919;-70
2022/05/22 00:08:41;;;;;;;;;;;9.60;99.90;;;;;;6246151;23;19955;-69
2022/05/22 00:11:06;;;;;;;;;;;9.20;99.90;;;;;;6246166;23;19920;-70
2022/05/22 00:13:32;;;;;;;;;;;9.20;99.90;;;;;;6219546;23;19923;-70
2022/05/22 00:18:42;;;;;;;;;;;9.60;99.90;;;;;;6246389;23;19924;-70
2022/05/22 00:21:07;;;;;;;;;;;9.20;99.90;;;;;;6219116;23;20003;-69
2022/05/22 00:23:33;;;;;;;;;;;9.20;99.90;;;;;;6219509;23;20053;-69
2022/05/22 00:25:59;;;;;;;;;;;9.20;99.90;;;;;;6233288;23;19973;-68
2022/05/22 00:28:24;;;;;;;;;;;9.60;99.90;;;;;;6245821;23;19915;-69
2022/05/22 00:30:50;;;;;;;;;;;9.10;99.90;;;;;;6239175;23;20258;-70
2022/05/22 00:33:16;;;;;;;;;;;9.20;99.90;;;;;;6219831;23;19994;-70
2022/05/22 00:35:41;;;;;;;;;;;9.20;99.90;;;;;;6193300;23;19978;-68
2022/05/22 00:38:07;;;;;;;;;;;9.20;99.90;;;;;;6246354;23;19926;-69
2022/05/22 00:40:33;;;;;;;;;;;9.20;99.90;;;;;;6246527;23;19958;-68
2022/05/22 00:42:58;;;;;;;;;;;9.20;99.90;;;;;;6246062;23;19926;-68
2022/05/22 00:45:24;;;;;;;;;;;9.10;99.90;;;;;;6219107;23;19975;-69
2022/05/22 00:47:53;;;;;;;;;;;9.00;99.90;;;;;;6245983;23;19924;-70
2022/05/22 00:50:20;;;;;;;;;;;9.00;99.90;;;;;;6246411;23;20257;-69
2022/05/22 00:52:47;;;;;;;;;;;9.00;99.90;;;;;;6219235;23;19926;-71
2022/05/22 00:55:13;;;;;;;;;;;9.00;99.90;;;;;;6219045;23;19920;-71
2022/05/22 00:57:50;;;;;;;;;;;8.90;99.90;;;;;;6246152;23;19965;-70
2022/05/22 01:00:20;;;;;;;;;;;8.90;99.90;;;;;;6245607;23;20322;-69
2022/05/22 01:05:30;;;;;;;;;;;9.40;99.90;;;;;;6246305;23;19965;-72
2022/05/22 01:07:57;;;;;;;;;;;8.80;99.90;;;;;;6218847;23;19963;-70
2022/05/22 01:10:24;;;;;;;;;;;8.80;99.90;;;;;;6246105;23;19927;-73
2022/05/22 01:12:50;;;;;;;;;;;8.70;99.90;;;;;;6245926;23;19966;-71
2022/05/22 01:15:15;;;;;;;;;;;8.80;99.90;;;;;;6245340;23;20326;-69
2022/05/22 01:17:42;;;;;;;;;;;9.30;99.90;;;;;;6245962;23;19994;-69
2022/05/22 01:20:08;;;;;;;;;;;8.70;99.90;;;;;;6246074;23;19920;-69
2022/05/22 01:22:34;;;;;;;;;;;8.60;99.90;;;;;;6245687;23;19919;-70
2022/05/22 01:24:59;;;;;;;;;;;9.60;99.90;;;;;;6218488;23;20025;-69
2022/05/22 01:27:25;;;;;;;;;;;8.60;99.90;;;;;;6245944;23;20388;-69
2022/05/22 01:30:04;;;;;;;;;;;8.70;99.90;;;;;;6245075;23;19951;-68
2022/05/22 01:32:32;;;;;;;;;;;8.80;99.90;;;;;;6245917;23;19920;-68
2022/05/22 01:34:58;;;;;;;;;;;9.00;99.90;;;;;;6218842;23;19999;-68
2022/05/22 01:37:24;;;;;;;;;;;8.60;99.90;;;;;;6245683;23;20349;-69
2022/05/22 01:39:51;;;;;;;;;;;8.60;99.90;;;;;;6245539;23;19919;-69
2022/05/22 01:42:16;;;;;;;;;;;8.60;99.90;;;;;;6218698;23;19919;-68
2022/05/22 01:44:42;;;;;;;;;;;8.60;99.90;;;;;;6218494;23;20342;-69
2022/05/22 01:47:07;;;;;;;;;;;9.10;99.90;;;;;;6244873;23;19982;-69
2022/05/22 01:49:33;;;;;;;;;;;8.50;99.90;;;;;;6218814;23;19923;-68
2022/05/22 01:51:59;;;;;;;;;;;8.40;99.90;;;;;;6245545;23;19919;-68
2022/05/22 01:54:24;;;;;;;;;;;8.40;99.90;;;;;;6245663;23;19919;-68
2022/05/22 01:56:50;;;;;;;;;;;8.50;99.90;;;;;;6245203;23;19920;-69
2022/05/22 01:59:15;;;;;;;;;;;8.40;99.90;;;;;;6218619;23;19920;-68
2022/05/22 02:01:41;;;;;;;;;;;9.20;99.90;;;;;;6218017;23;20213;-67
2022/05/22 02:04:06;;;;;;;;;;;8.30;99.90;;;;;;6219318;23;20348;-70
2022/05/22 02:06:32;;;;;;;;;;;8.90;99.90;;;;;;6248415;23;20003;-67
2022/05/22 02:08:57;;;;;;;;;;;8.90;99.90;;;;;;6247799;23;19998;-74
2022/05/22 02:11:23;;;;;;;;;;;8.40;99.90;;;;;;6248215;23;19946;-72
2022/05/22 02:13:49;;;;;;;;;;;8.30;99.90;;;;;;6222135;23;20358;-68
2022/05/22 02:16:15;;;;;;;;;;;9.40;99.90;;;;;;6233979;23;19919;-75
2022/05/22 02:18:41;;;;;;;;;;;8.30;99.90;;;;;;6227568;23;19920;-69
2022/05/22 02:21:07;;;;;;;;;;;8.30;99.90;;;;;;6247877;23;19972;-69
2022/05/22 02:23:34;;;;;;;;;;;9.00;99.90;;;;;;6247870;23;20006;-65
2022/05/22 02:26:00;;;;;;;;;;;8.30;99.90;;;;;;6220631;23;20334;-69
2022/05/22 02:28:26;;;;;;;;;;;8.20;99.90;;;;;;6219797;23;19931;-68
2022/05/22 02:30:53;;;;;;;;;;;8.20;99.90;;;;;;6221073;23;19962;-70
2022/05/22 02:33:19;;;;;;;;;;;8.20;99.90;;;;;;6247495;23;19926;-68
2022/05/22 02:35:45;;;;;;;;;;;8.20;99.90;;;;;;6220897;23;20249;-70
2022/05/22 02:38:11;;;;;;;;;;;8.90;99.90;;;;;;6221123;23;19920;-67
2022/05/22 02:40:37;;;;;;;;;;;8.10;99.90;;;;;;6247617;23;19920;-70
2022/05/22 02:43:02;;;;;;;;;;;8.40;99.90;;;;;;6220510;23;20345;-71
2022/05/22 02:45:30;;;;;;;;;;;7.90;99.90;;;;;;6219693;23;19943;-71
2022/05/22 02:47:56;;;;;;;;;;;7.90;99.90;;;;;;6247702;23;19966;-70
2022/05/22 02:50:23;;;;;;;;;;;7.70;99.90;;;;;;6246822;23;19973;-70
2022/05/22 02:52:49;;;;;;;;;;;7.70;99.90;;;;;;6247478;23;19920;-70
2022/05/22 02:55:16;;;;;;;;;;;7.60;99.90;;;;;;6248855;23;20290;-70
2022/05/22 02:57:42;;;;;;;;;;;8.30;99.90;;;;;;6247070;23;20301;-70
2022/05/22 03:00:13;;;;;;;;;;;8.10;99.90;;;;;;6220653;23;19919;-69
2022/05/22 03:02:39;;;;;;;;;;;7.60;99.90;;;;;;6247327;23;19926;-70
2022/05/22 03:05:04;;;;;;;;;;;7.60;99.90;;;;;;6219903;23;19919;-71
2022/05/22 03:07:30;;;;;;;;;;;7.60;99.90;;;;;;6245745;23;20017;-70
2022/05/22 03:09:55;;;;;;;;;;;7.60;99.90;;;;;;6219828;23;19998;-70
2022/05/22 03:12:22;;;;;;;;;;;7.70;99.90;;;;;;6219186;23;19920;-70
2022/05/22 03:14:52;;;;;;;;;;;7.70;99.90;;;;;;6194881;23;19919;-70
2022/05/22 03:17:18;;;;;;;;;;;7.70;99.90;;;;;;6219960;23;20038;-71
2022/05/22 03:19:44;;;;;;;;;;;7.70;99.90;;;;;;6247161;23;20284;-69
2022/05/22 03:22:10;;;;;;;;;;;8.30;99.90;;;;;;6218824;23;19919;-70
2022/05/22 03:24:36;;;;;;;;;;;7.70;99.90;;;;;;6246654;23;19925;-69
2022/05/22 03:27:03;;;;;;;;;;;8.30;99.90;;;;;;6246892;23;20002;-71
2022/05/22 03:29:29;;;;;;;;;;;7.50;99.90;;;;;;6219920;23;19920;-70
2022/05/22 03:31:54;;;;;;;;;;;7.50;99.90;;;;;;6219884;23;19919;-71
2022/05/22 03:34:20;;;;;;;;;;;7.40;99.90;;;;;;6219904;23;20385;-69
2022/05/22 03:36:45;;;;;;;;;;;7.40;99.90;;;;;;6246661;23;20329;-69
2022/05/22 03:39:11;;;;;;;;;;;8.10;99.90;;;;;;6219902;23;20326;-68
2022/05/22 03:41:37;;;;;;;;;;;7.40;99.90;;;;;;6220086;23;19920;-69
2022/05/22 03:44:03;;;;;;;;;;;7.80;99.90;;;;;;6219882;23;20286;-69
2022/05/22 03:46:28;;;;;;;;;;;7.50;99.90;;;;;;6246445;23;20326;-67
2022/05/22 03:48:54;;;;;;;;;;;7.90;99.90;;;;;;6219750;23;19926;-71
2022/05/22 03:51:20;;;;;;;;;;;7.60;99.90;;;;;;6219369;23;19927;-68
2022/05/22 03:53:45;;;;;;;;;;;7.80;99.90;;;;;;6219314;23;19919;-67
2022/05/22 03:56:12;;;;;;;;;;;7.80;99.90;;;;;;6246468;23;19920;-68
2022/05/22 03:58:38;;;;;;;;;;;8.00;99.90;;;;;;6219733;23;19934;-67
2022/05/22 04:01:04;;;;;;;;;;;7.90;99.90;;;;;;6224873;22;19907;-65
2022/05/22 04:03:29;;;;;;;;;;;7.90;99.90;;;;;;6273267;23;19919;-72
2022/05/22 04:05:55;;;;;;;;;;;8.60;99.90;;;;;;6226228;23;19920;-70
2022/05/22 04:08:20;;;;;;;;;;;8.00;99.90;;;;;;6219600;23;19919;-68
2022/05/22 04:10:46;;;;;;;;;;;8.10;99.90;;;;;;6246716;23;19920;-68
2022/05/22 04:13:11;;;;;;;;;;;8.10;99.90;;;;;;6246746;23;19955;-68
2022/05/22 04:15:37;;;;;;;;;;;8.20;99.90;;;;;;6246790;23;20281;-68
2022/05/22 04:18:02;;;;;;;;;;;8.10;99.90;;;;;;6246000;23;19927;-69
2022/05/22 04:20:28;;;;;;;;;;;8.10;99.90;;;;;;6194433;23;19927;-69
2022/05/22 04:25:38;;;;;;;;;;;8.10;99.90;;;;;;6245834;23;19919;-69
2022/05/22 04:28:04;;;;;;;;;;;8.10;99.90;;;;;;6219340;23;19931;-69
2022/05/22 04:30:29;;;;;;;;;;;8.20;99.90;;;;;;6219789;23;19919;-69
2022/05/22 04:32:55;;;;;;;;;;;8.20;99.90;;;;;;6219628;23;19939;-69
2022/05/22 04:35:21;;;;;;;;;;;8.10;99.90;;;;;;6219791;23;19919;-70
2022/05/22 04:37:47;;;;;;;;;;;8.70;99.90;;;;;;6219424;23;19919;-69
2022/05/22 04:40:12;;;;;;;;;;;8.70;99.90;;;;;;6218961;23;19920;-68
2022/05/22 04:42:38;;;;;;;;;;;8.40;99.90;;;;;;6219503;23;19920;-72
2022/05/22 04:45:04;;;;;;;;;;;9.30;99.90;;;;;;6219167;23;20238;-67
2022/05/22 04:47:30;;;;;;;;;;;8.50;99.90;;;;;;6218957;23;19920;-69
2022/05/22 04:49:55;;;;;;;;;;;8.60;99.90;;;;;;6246367;23;20356;-69
2022/05/22 04:52:21;;;;;;;;;;;8.60;99.90;;;;;;6245829;23;19922;-68
2022/05/22 04:54:47;;;;;;;;;;;9.40;99.90;;;;;;6219448;23;19942;-67
2022/05/22 04:57:13;;;;;;;;;;;8.70;99.90;;;;;;6218619;23;20368;-70
2022/05/22 04:59:38;;;;;;;;;;;8.80;99.90;;;;;;6219528;23;19920;-69
2022/05/22 05:02:04;;;;;;;;;;;8.80;99.90;;;;;;6219309;23;19920;-68
2022/05/22 05:04:29;;;;;;;;;;;8.90;99.90;;;;;;6219260;23;19990;-66
2022/05/22 05:06:56;;;;;;;;;;;9.00;99.90;;;;;;6218736;23;20292;-67
2022/05/22 05:09:22;;;;;;;;;;;9.00;99.90;;;;;;6219440;23;19970;-68
2022/05/22 05:11:47;;;;;;;;;;;9.60;99.90;;;;;;6245460;23;19920;-70
2022/05/22 05:14:13;;;;;;;;;;;10.20;99.90;;;;;;6245505;23;20038;-68
2022/05/22 05:16:38;;;;;;;;;;;9.20;99.90;;;;;;6245989;23;19919;-67
2022/05/22 05:19:04;;;;;;;;;;;9.90;99.90;;;;;;6245928;23;19923;-68
2022/05/22 05:21:30;;;;;;;;;;;9.20;99.90;;;;;;6246033;23;19959;-69
2022/05/22 05:23:56;;;;;;;;;;;9.30;99.90;;;;;;6242813;23;19923;-68
2022/05/22 05:26:21;;;;;;;;;;;9.30;99.90;;;;;;6219047;23;19920;-67
2022/05/22 05:28:47;;;;;;;;;;;9.40;99.90;;;;;;6217934;23;19994;-69
2022/05/22 05:31:13;;;;;;;;;;;10.30;99.90;;;;;;6245603;23;19920;-70
2022/05/22 05:33:38;;;;;;;;;;;9.80;99.90;;;;;;6246078;23;19995;-70
2022/05/22 05:36:07;;;;;;;;;;;10.70;99.90;;;;;;6219243;23;19919;-68
2022/05/22 05:38:33;;;;;;;;;;;9.60;99.90;;;;;;6244934;23;20246;-69
2022/05/22 05:40:58;;;;;;;;;;;10.00;99.90;;;;;;6245469;23;19919;-68
2022/05/22 05:43:24;;;;;;;;;;;10.70;99.90;;;;;;6244943;23;19961;-68
2022/05/22 05:45:50;;;;;;;;;;;10.30;99.90;;;;;;6246128;23;19923;-69
2022/05/22 05:48:17;;;;;;;;;;;9.90;99.90;;;;;;6256628;23;20343;-71
2022/05/22 05:50:42;;;;;;;;;;;10.00;99.90;;;;;;6247266;23;19923;-70
2022/05/22 05:53:08;;;;;;;;;;;10.70;99.90;;;;;;6233742;23;20326;-70
2022/05/22 05:55:34;;;;;;;;;;;10.10;99.90;;;;;;6246144;23;19927;-68
2022/05/22 05:58:00;;;;;;;;;;;10.40;99.90;;;;;;6218203;23;19920;-70
2022/05/22 06:00:26;;;;;;;;;;;10.30;99.90;;;;;;6245461;23;19916;-69
2022/05/22 06:02:51;;;;;;;;;;;10.40;99.90;;;;;;6218585;23;19926;-69
2022/05/22 06:05:17;;;;;;;;;;;10.70;99.90;;;;;;6244501;23;19931;-69
2022/05/22 06:07:42;;;;;;;;;;;10.70;99.90;;;;;;6245377;23;19970;-68
2022/05/22 06:10:09;;;;;;;;;;;10.60;99.90;;;;;;6245522;23;19920;-68
2022/05/22 06:12:35;;;;;;;;;;;10.70;99.90;;;;;;6218600;23;19920;-68
2022/05/22 06:15:00;;;;;;;;;;;11.60;99.90;;;;;;6243230;23;19977;-68
2022/05/22 06:17:34;;;;;;;;;;;10.90;99.90;;;;;;6245801;23;19919;-70
2022/05/22 06:20:00;;;;;;;;;;;11.00;99.90;;;;;;6218672;23;19947;-68
2022/05/22 06:22:28;;;;;;;;;;;11.10;99.90;;;;;;6245391;23;20346;-68
2022/05/22 06:24:54;;;;;;;;;;;11.20;99.90;;;;;;6245352;23;19977;-68
2022/05/22 06:27:20;;;;;;;;;;;11.80;99.90;;;;;;6245704;23;20320;-71
2022/05/22 06:29:46;;;;;;;;;;;11.40;99.90;;;;;;6218141;23;19927;-68
2022/05/22 06:32:12;;;;;;;;;;;11.40;99.90;;;;;;6245542;23;19927;-69
2022/05/22 06:34:41;;;;;;;;;;;11.50;99.90;;;;;;6245751;23;19919;-69
2022/05/22 06:37:09;;;;;;;;;;;11.60;99.90;;;;;;6245633;23;19920;-67
2022/05/22 06:39:54;;;;;;;;;;;11.70;99.90;;;;;;6245766;23;19931;-70
2022/05/22 06:42:22;;;;;;;;;;;11.80;99.90;;;;;;6245336;23;20381;-70
2022/05/22 06:44:52;;;;;;;;;;;12.00;99.90;;;;;;6243786;23;19921;-69
2022/05/22 06:47:17;;;;;;;;;;;12.10;99.90;;;;;;6217841;23;20259;-68
2022/05/22 06:49:43;;;;;;;;;;;12.20;99.90;;;;;;6246231;23;19973;-70
2022/05/22 06:52:08;;;;;;;;;;;12.30;99.90;;;;;;6220498;23;19955;-70
2022/05/22 06:54:34;;;;;;;;;;;12.40;99.90;;;;;;6247523;23;19926;-70
2022/05/22 06:57:00;;;;;;;;;;;12.50;99.90;;;;;;6247300;23;19919;-69
2022/05/22 06:59:25;;;;;;;;;;;12.60;99.90;;;;;;6247328;23;20231;-69
2022/05/22 07:01:51;;;;;;;;;;;12.90;99.90;;;;;;6246796;23;20322;-69
2022/05/22 07:04:16;;;;;;;;;;;13.00;99.90;;;;;;6220189;23;20392;-69
2022/05/22 07:06:42;;;;;;;;;;;13.10;99.90;;;;;;6247640;23;19994;-69
2022/05/22 07:09:08;;;;;;;;;;;13.20;99.90;;;;;;6247318;23;19927;-69
2022/05/22 07:11:39;;;;;;;;;;;13.50;99.90;;;;;;6247124;23;19920;-68
2022/05/22 07:14:09;;;;;;;;;;;13.50;99.90;;;;;;6247246;23;19926;-69
2022/05/22 07:16:35;;;;;;;;;;;13.60;99.90;;;;;;6247014;23;19919;-69
2022/05/22 07:19:01;;;;;;;;;;;13.80;99.90;;;;;;6246803;23;19920;-69
2022/05/22 07:21:26;;;;;;;;;;;14.00;99.90;;;;;;6219525;23;20222;-70
2022/05/22 07:23:52;;;;;;;;;;;14.10;99.90;;;;;;6245257;23;19923;-68
2022/05/22 07:26:21;;;;;;;;;;;14.30;99.90;;;;;;6247149;23;19963;-69
2022/05/22 07:28:47;;;;;;;;;;;14.40;99.90;;;;;;6246916;23;19919;-69
2022/05/22 07:31:17;;;;;;;;;;;14.80;99.90;;;;;;6247385;23;19920;-69
2022/05/22 07:33:43;;;;;;;;;;;14.70;99.90;;;;;;6220133;23;19924;-70
2022/05/22 07:36:08;;;;;;;;;;;14.90;99.90;;;;;;6232965;23;19931;-70
2022/05/22 07:38:34;;;;;;;;;;;15.00;99.90;;;;;;6255939;23;20360;-69
2022/05/22 07:40:59;;;;;;;;;;;15.10;99.90;;;;;;6206933;23;19926;-67
2022/05/22 07:43:25;;;;;;;;;;;15.30;99.90;;;;;;6251298;23;19920;-71
2022/05/22 07:45:50;;;;;;;;;;;15.40;99.90;;;;;;6245579;23;19946;-70
2022/05/22 07:48:16;;;;;;;;;;;15.70;99.90;;;;;;6220138;23;20337;-70
2022/05/22 07:50:42;;;;;;;;;;;15.60;99.90;;;;;;6246501;23;19962;-69
2022/05/22 07:53:08;;;;;;;;;;;15.70;99.90;;;;;;6246684;23;19969;-69
2022/05/22 07:55:34;;;;;;;;;;;16.00;99.90;;;;;;6246621;23;19931;-71
2022/05/22 07:57:59;;;;;;;;;;;15.90;99.90;;;;;;6220245;23;19920;-69
2022/05/22 08:00:25;;;;;;;;;;;16.30;99.90;;;;;;6245006;23;19915;-70
2022/05/22 08:02:50;;;;;;;;;;;16.10;99.90;;;;;;6246126;23;19927;-70
2022/05/22 08:05:17;;;;;;;;;;;16.10;99.90;;;;;;6246110;23;19915;-68
2022/05/22 08:07:44;;;;;;;;;;;16.30;99.90;;;;;;6246611;23;20322;-70
2022/05/22 08:10:10;;;;;;;;;;;16.40;99.90;;;;;;6247083;23;19982;-70
2022/05/22 08:12:40;;;;;;;;;;;16.50;99.90;;;;;;6246496;23;19922;-68
2022/05/22 08:15:06;;;;;;;;;;;16.50;99.90;;;;;;6246723;23;20325;-68
2022/05/22 08:17:36;;;;;;;;;;;16.60;99.90;;;;;;6219423;23;20226;-74
2022/05/22 08:20:06;;;;;;;;;;;16.70;99.90;;;;;;6219783;23;19919;-72
2022/05/22 08:22:32;;;;;;;;;;;16.80;99.90;;;;;;6193932;23;20019;-73
2022/05/22 08:24:59;;;;;;;;;;;17.00;99.90;;;;;;6218941;23;19923;-71
2022/05/22 08:27:25;;;;;;;;;;;17.30;99.90;;;;;;6246359;23;19942;-69
2022/05/22 08:29:50;;;;;;;;;;;17.50;99.90;;;;;;6246202;23;20329;-69
2022/05/22 08:32:16;;;;;;;;;;;17.50;99.90;;;;;;6246044;23;19958;-69
2022/05/22 08:34:41;;;;;;;;;;;17.70;99.90;;;;;;6219437;23;20040;-67
2022/05/22 08:37:07;;;;;;;;;;;17.70;99.90;;;;;;6245760;23;19930;-69
2022/05/22 08:39:32;;;;;;;;;;;17.80;99.90;;;;;;6245993;23;20408;-67
2022/05/22 08:41:58;;;;;;;;;;;17.90;99.90;;;;;;6246070;23;19995;-69
2022/05/22 08:44:31;;;;;;;;;;;17.80;99.90;;;;;;6245824;23;20416;-68
2022/05/22 08:47:03;;;;;;;;;;;17.70;99.90;;;;;;6218687;23;19926;-66
2022/05/22 08:49:28;;;;;;;;;;;17.60;99.90;;;;;;6245721;23;19920;-69
2022/05/22 08:51:57;;;;;;;;;;;17.40;99.90;;;;;;6245978;23;19919;-67
2022/05/22 08:54:25;;;;;;;;;;;17.40;99.90;;;;;;6218548;23;19990;-66
2022/05/22 08:59:39;;;;;;;;;;;17.40;99.90;;;;;;6246004;23;19920;-69
2022/05/22 09:02:10;;;;;;;;;;;17.20;99.90;;;;;;6246118;23;19923;-69
2022/05/22 09:04:43;;;;;;;;;;;17.00;99.90;;;;;;6246248;23;19919;-72
2022/05/22 09:07:23;;;;;;;;;;;17.10;99.90;;;;;;6218911;23;19920;-72
2022/05/22 09:10:00;;;;;;;;;;;17.40;99.90;;;;;;6245715;23;19919;-68
2022/05/22 09:12:44;;;;;;;;;;;17.80;99.90;;;;;;6246167;23;19920;-70
2022/05/22 09:15:10;;;;;;;;;;;18.00;99.90;;;;;;6219057;23;19942;-68
2022/05/22 09:17:43;;;;;;;;;;;18.30;99.90;;;;;;6248584;23;20009;-70
2022/05/22 09:20:13;;;;;;;;;;;18.20;99.90;;;;;;6263351;23;19927;-72
2022/05/22 09:23:11;;;;;;;;;;;18.10;99.90;;;;;;6262061;23;19920;-68
2022/05/22 09:25:47;;;;;;;;;;;18.00;99.90;;;;;;6094425;23;19932;-69
2022/05/22 09:28:19;;;;;;;;;;;18.10;99.90;;;;;;6095742;23;20387;-69
2022/05/22 09:31:03;;;;;;;;;;;17.90;99.90;;;;;;6094477;23;19928;-69
2022/05/22 09:33:32;;;;;;;;;;;17.80;99.90;;;;;;6094740;23;19921;-70
2022/05/22 09:36:05;;;;;;;;;;;17.60;99.90;;;;;;6069700;23;20001;-69
2022/05/22 09:38:33;;;;;;;;;;;17.60;99.90;;;;;;6094700;23;19921;-71
2022/05/22 09:41:07;;;;;;;;;;;17.90;99.90;;;;;;6069040;23;19965;-72
2022/05/22 09:44:05;;;;;;;;;;;18.20;99.90;;;;;;6069390;23;20642;-68
2022/05/22 09:46:49;;;;;;;;;;;18.60;99.90;;;;;;6036338;23;19922;-71
2022/05/22 09:49:27;;;;;;;;;;;18.90;99.90;;;;;;6036514;23;19922;-74
2022/05/22 09:52:08;;;;;;;;;;;18.70;99.90;;;;;;6036768;23;20222;-74
2022/05/22 09:54:46;;;;;;;;;;;18.60;99.90;;;;;;6036418;23;19973;-73
2022/05/22 09:57:30;;;;;;;;;;;18.90;99.90;;;;;;6035649;23;20268;-73
2022/05/22 10:00:01;;;;;;;;;;;19.00;99.90;;;;;;6036546;23;19925;-73
2022/05/22 10:02:45;;;;;;;;;;;19.20;99.90;;;;;;6153039;23;20343;-71
2022/05/22 10:05:11;;;;;;;;;;;19.50;99.90;;;;;;6152964;23;19921;-73
2022/05/22 10:07:55;;;;;;;;;;;19.70;99.90;;;;;;6153071;23;19943;-71
2022/05/22 10:10:29;;;;;;;;;;;19.90;99.90;;;;;;6152536;23;20078;-72
2022/05/22 10:13:20;;;;;;;;;;;20.20;99.90;;;;;;6152510;23;19917;-69
2022/05/22 10:15:52;;;;;;;;;;;20.10;99.90;;;;;;6036119;23;20345;-75
2022/05/22 10:18:24;;;;;;;;;;;20.20;99.90;;;;;;6036697;23;20272;-70
2022/05/22 10:21:00;;;;;;;;;;;20.50;99.90;;;;;;6012487;23;19918;-70
2022/05/22 10:23:35;;;;;;;;;;;20.60;99.90;;;;;;6123141;23;19921;-70
2022/05/22 10:26:16;;;;;;;;;;;20.70;99.90;;;;;;6124489;23;20323;-69
2022/05/22 10:28:50;;;;;;;;;;;20.60;99.90;;;;;;6100046;23;19920;-71
2022/05/22 10:31:18;;;;;;;;;;;20.30;99.90;;;;;;6124838;23;19921;-70
2022/05/22 10:34:02;;;;;;;;;;;19.90;99.90;;;;;;6125087;23;19921;-73
2022/05/22 10:36:31;;;;;;;;;;;19.50;99.90;;;;;;6100615;23;19921;-72
2022/05/22 10:39:01;;;;;;;;;;;19.40;99.90;;;;;;6100092;23;20221;-73
2022/05/22 10:44:15;;;;;;;;;;;18.90;99.90;;;;;;6124970;23;19924;-70
2022/05/22 10:46:44;;;;;;;;;;;19.00;99.90;;;;;;6125738;23;19980;-71
2022/05/22 10:49:10;;;;;;;;;;;18.90;99.90;;;;;;6124984;23;20017;-69
2022/05/22 10:51:36;;;;;;;;;;;18.60;99.90;;;;;;6136682;23;20339;-68
2022/05/22 10:54:01;;;;;;;;;;;18.50;99.90;;;;;;6219615;23;19955;-69
2022/05/22 10:56:29;;;;;;;;;;;18.50;99.90;;;;;;6247292;23;19920;-70
2022/05/22 10:58:56;;;;;;;;;;;18.70;99.90;;;;;;6220335;23;19955;-71
2022/05/22 11:01:23;;;;;;;;;;;18.90;99.90;;;;;;6247495;23;20250;-69
2022/05/22 11:03:59;;;;;;;;;;;19.10;99.90;;;;;;6247523;23;19927;-70
2022/05/22 11:06:25;;;;;;;;;;;19.30;99.90;;;;;;6248429;23;19991;-68
2022/05/22 11:08:54;;;;;;;;;;;19.30;99.90;;;;;;6249499;23;20284;-70
2022/05/22 11:11:23;;;;;;;;;;;19.60;99.90;;;;;;6222005;23;20030;-71
2022/05/22 11:13:50;;;;;;;;;;;19.90;99.90;;;;;;6219459;23;20318;-70
2022/05/22 11:16:17;;;;;;;;;;;20.30;99.90;;;;;;6194736;23;20035;-69
2022/05/22 11:18:43;;;;;;;;;;;20.60;99.90;;;;;;6246675;23;19958;-70
2022/05/22 11:21:28;;;;;;;;;;;20.80;99.90;;;;;;6221653;23;19927;-70
2022/05/22 11:24:23;;;;;;;;;;;21.00;99.90;;;;;;6246096;23;19915;-69
2022/05/22 11:27:11;;;;;;;;;;;20.70;99.90;;;;;;6093745;23;20016;-69
2022/05/22 11:29:46;;;;;;;;;;;20.10;99.90;;;;;;6013023;23;20458;-69
2022/05/22 11:32:21;;;;;;;;;;;19.60;99.90;;;;;;6036345;23;19957;-69
2022/05/22 11:35:16;;;;;;;;;;;19.50;99.90;;;;;;6036742;23;19992;-68
2022/05/22 11:38:04;;;;;;;;;;;19.50;99.90;;;;;;6008126;23;19922;-70
2022/05/22 11:40:59;;;;;;;;;;;19.80;99.90;;;;;;5897154;24;19923;-72
2022/05/22 11:43:44;;;;;;;;;;;19.60;99.90;;;;;;5897394;24;19980;-69
2022/05/22 11:46:38;;;;;;;;;;;19.20;99.90;;;;;;5896661;24;20355;-69
2022/05/22 11:49:22;;;;;;;;;;;19.40;99.90;;;;;;5897036;24;20339;-67
2022/05/22 11:52:08;;;;;;;;;;;19.40;99.90;;;;;;5897229;24;19924;-68
2022/05/22 11:54:51;;;;;;;;;;;19.20;99.90;;;;;;5897488;24;20374;-68
2022/05/22 11:57:43;;;;;;;;;;;19.00;99.90;;;;;;5897116;24;19999;-68
2022/05/22 12:00:22;;;;;;;;;;;19.00;99.90;;;;;;5897132;24;19924;-70
2022/05/22 12:02:57;;;;;;;;;;;19.10;99.90;;;;;;5917867;24;19923;-74
2022/05/22 12:05:29;;;;;;;;;;;19.40;99.90;;;;;;5952879;24;20085;-71
2022/05/22 12:08:22;;;;;;;;;;;19.60;99.90;;;;;;5980821;24;20387;-70
2022/05/22 12:10:48;;;;;;;;;;;20.00;99.90;;;;;;5958412;23;20001;-72
2022/05/22 12:13:13;;;;;;;;;;;20.40;99.90;;;;;;5995997;23;19929;-72
2022/05/22 12:15:55;;;;;;;;;;;20.50;99.90;;;;;;6094703;23;20248;-70
2022/05/22 12:18:29;;;;;;;;;;;20.60;99.90;;;;;;6194089;23;19920;-69
2022/05/22 12:21:01;;;;;;;;;;;20.80;99.90;;;;;;6246468;23;19930;-71
2022/05/22 12:23:33;;;;;;;;;;;20.60;99.90;;;;;;6219424;23;19919;-68
2022/05/22 12:25:59;;;;;;;;;;;20.80;99.90;;;;;;6246434;23;19927;-67
2022/05/22 12:28:25;;;;;;;;;;;21.00;99.90;;;;;;6245848;22;20330;-69
2022/05/22 12:30:52;;;;;;;;;;;21.10;99.90;;;;;;6243746;23;19920;-70
2022/05/22 12:33:18;;;;;;;;;;;21.30;97.60;;;;;;6245635;23;20021;-70
2022/05/22 12:35:44;;;;;;;;;;;21.20;99.90;;;;;;6219008;23;19943;-69
2022/05/22 12:38:12;;;;;;;;;;;21.30;98.50;;;;;;6218810;23;19920;-69
2022/05/22 12:40:47;;;;;;;;;;;21.40;99.90;;;;;;6219351;23;20345;-70
2022/05/22 12:43:14;;;;;;;;;;;21.50;99.80;;;;;;6246497;23;20226;-71
2022/05/22 12:45:40;;;;;;;;;;;21.70;99.90;;;;;;6220737;23;19919;-69
2022/05/22 12:48:12;;;;;;;;;;;21.90;99.90;;;;;;6252503;23;20238;-72
2022/05/22 12:50:47;;;;;;;;;;;22.00;90.60;;;;;;6255337;23;19923;-70
2022/05/22 12:53:20;;;;;;;;;;;22.00;92.30;;;;;;6255063;23;20330;-69
2022/05/22 12:55:46;;;;;;;;;;;22.00;95.70;;;;;;6246168;23;19974;-69
2022/05/22 12:58:28;;;;;;;;;;;22.20;97.00;;;;;;6194233;23;19920;-69
2022/05/22 13:00:55;;;;;;;;;;;22.10;99.90;;;;;;6245784;23;20338;-70
2022/05/22 13:03:25;;;;;;;;;;;21.80;98.20;;;;;;6246074;23;19920;-70
2022/05/22 13:05:57;;;;;;;;;;;21.60;99.90;;;;;;6245167;23;20353;-69
2022/05/22 13:08:32;;;;;;;;;;;21.10;99.90;;;;;;6245912;23;19930;-69
2022/05/22 13:10:58;;;;;;;;;;;20.70;99.40;;;;;;6246048;23;19998;-69
2022/05/22 13:13:26;;;;;;;;;;;20.60;99.90;;;;;;6245864;23;19919;-70
2022/05/22 13:16:10;;;;;;;;;;;20.20;99.90;;;;;;6245909;23;19924;-69
2022/05/22 13:18:49;;;;;;;;;;;20.00;99.90;;;;;;6245914;23;19920;-70
2022/05/22 13:21:35;;;;;;;;;;;19.80;99.90;;;;;;6218607;23;19959;-71
2022/05/22 13:24:02;;;;;;;;;;;19.80;99.90;;;;;;6246127;23;19919;-69
2022/05/22 13:26:30;;;;;;;;;;;19.70;99.90;;;;;;6245755;23;19919;-68
2022/05/22 13:29:07;;;;;;;;;;;19.90;99.90;;;;;;6245997;23;19926;-66
2022/05/22 13:31:41;;;;;;;;;;;19.90;99.90;;;;;;6246109;23;19923;-70
2022/05/22 13:34:19;;;;;;;;;;;20.10;99.90;;;;;;6246021;23;19947;-70
2022/05/22 13:36:56;;;;;;;;;;;20.00;99.90;;;;;;6245322;23;19920;-67
2022/05/22 13:39:37;;;;;;;;;;;20.00;99.90;;;;;;6218571;23;19977;-72
2022/05/22 13:42:20;;;;;;;;;;;20.00;99.90;;;;;;6245763;23;19965;-69
2022/05/22 13:45:14;;;;;;;;;;;19.90;99.90;;;;;;6246041;23;19977;-70
2022/05/22 13:47:51;;;;;;;;;;;19.90;99.90;;;;;;6245251;23;19920;-68
2022/05/22 13:53:33;;;;;;;;;;;19.90;99.90;;;;;;6245289;23;19920;-68
2022/05/22 13:55:59;;;;;;;;;;;19.90;99.90;;;;;;6245795;23;19927;-68
2022/05/22 13:58:28;;;;;;;;;;;20.00;99.90;;;;;;6217583;23;19987;-67
2022/05/22 14:00:54;;;;;;;;;;;19.90;98.10;;;;;;6246500;23;20296;-67
2022/05/22 14:03:36;;;;;;;;;;;20.00;99.70;;;;;;6246891;23;19973;-67
2022/05/22 14:06:03;;;;;;;;;;;20.00;99.90;;;;;;6247583;23;20345;-71
2022/05/22 14:08:34;;;;;;;;;;;20.00;99.90;;;;;;6219397;23;19920;-69
2022/05/22 14:11:01;;;;;;;;;;;20.10;99.90;;;;;;6247175;23;19951;-69
2022/05/22 14:13:27;;;;;;;;;;;20.20;99.90;;;;;;6247376;23;20356;-69
2022/05/22 14:15:55;;;;;;;;;;;20.30;99.70;;;;;;6220996;23;19926;-69
2022/05/22 14:18:22;;;;;;;;;;;20.40;99.60;;;;;;6247622;23;19955;-67
2022/05/22 14:20:49;;;;;;;;;;;20.40;99.90;;;;;;6220333;23;19920;-67
2022/05/22 14:23:18;;;;;;;;;;;20.40;99.90;;;;;;6247552;23;19966;-68
2022/05/22 14:25:44;;;;;;;;;;;20.30;99.90;;;;;;6247092;23;19919;-67
2022/05/22 14:28:11;;;;;;;;;;;20.30;99.90;;;;;;6219432;23;19923;-65
2022/05/22 14:30:38;;;;;;;;;;;20.20;99.90;;;;;;6226218;23;19927;-69
2022/05/22 14:33:19;;;;;;;;;;;20.20;99.90;;;;;;6207174;23;20049;-72
2022/05/22 14:35:46;;;;;;;;;;;20.20;99.90;;;;;;6258012;23;19920;-75
2022/05/22 14:38:11;;;;;;;;;;;20.20;99.90;;;;;;6254287;23;19915;-66
2022/05/22 14:40:47;;;;;;;;;;;20.30;99.90;;;;;;6252363;23;19955;-67
2022/05/22 14:43:13;;;;;;;;;;;20.40;99.90;;;;;;6199536;23;19927;-79
2022/05/22 14:45:44;;;;;;;;;;;20.40;99.80;;;;;;6248490;23;19920;-70
2022/05/22 14:48:11;;;;;;;;;;;20.50;99.90;;;;;;6219711;23;19924;-76
2022/05/22 14:50:43;;;;;;;;;;;20.70;99.70;;;;;;6247474;23;19989;-69